createdAt,value
2019-04-11T00:00:48.044Z,69.43
2019-04-11T00:01:48.572Z,70.19
2019-04-11T00:02:47.021Z,69.74
2019-04-11T00:03:46.582Z,70.09
2019-04-11T00:04:46.636Z,69.67
2019-04-11T00:05:47.361Z,70.26
2019-04-11T00:06:47.781Z,70.29
2019-04-11T00:07:46.753Z,70.50
2019-04-11T00:08:46.531Z,70.19
2019-04-11T00:09:47.788Z,70.36
2019-04-11T00:10:47.056Z,70.40
2019-04-11T00:11:46.528Z,70.29
2019-04-11T00:12:46.585Z,70.71
2019-04-11T00:13:47.362Z,69.87
2019-04-11T00:14:46.946Z,70.19
2019-04-11T00:15:46.726Z,70.19
2019-04-11T00:16:47.628Z,70.19
2019-04-11T00:17:46.414Z,70.74
2019-04-11T00:18:47.143Z,70.61
2019-04-11T00:19:47.408Z,70.50
2019-04-11T00:20:46.524Z,70.40
2019-04-11T00:21:46.774Z,71.02
2019-04-11T00:22:46.482Z,71.23
2019-04-11T00:23:46.349Z,71.02
2019-04-11T00:24:47.200Z,70.92
2019-04-11T00:25:47.446Z,70.71
2019-04-11T00:26:46.625Z,70.19
2019-04-11T00:27:46.365Z,71.02
2019-04-11T00:28:46.423Z,70.61
2019-04-11T00:29:47.006Z,70.74
2019-04-11T00:30:46.413Z,70.92
2019-04-11T00:31:46.829Z,71.33
2019-04-11T00:32:46.479Z,71.65
2019-04-11T00:33:46.628Z,71.75
2019-04-11T00:34:47.019Z,71.12
2019-04-11T00:35:46.224Z,71.23
2019-04-11T00:36:46.442Z,71.12
2019-04-11T00:37:47.403Z,71.16
2019-04-11T00:38:46.368Z,71.75
2019-04-11T00:39:46.233Z,71.65
2019-04-11T00:40:46.282Z,71.96
2019-04-11T00:41:46.195Z,71.96
2019-04-11T00:42:47.110Z,71.75
2019-04-11T00:43:46.884Z,72.06
2019-04-11T00:44:47.973Z,72.93
2019-04-11T00:45:46.130Z,72.72
2019-04-11T00:46:46.726Z,71.78
2019-04-11T00:47:47.017Z,71.99
2019-04-11T00:48:46.232Z,72.20
2019-04-11T00:49:46.463Z,71.58
2019-04-11T00:50:46.241Z,72.09
2019-04-11T00:51:46.173Z,72.44
2019-04-11T00:52:46.156Z,73.07
2019-04-11T00:53:46.554Z,72.93
2019-04-11T00:54:46.978Z,72.75
2019-04-11T00:55:46.098Z,72.93
2019-04-11T00:56:46.346Z,73.17
2019-04-11T00:57:46.024Z,72.83
2019-04-11T00:58:46.103Z,72.96
2019-04-11T00:59:46.766Z,72.75
2019-04-11T01:00:47.133Z,72.83
2019-04-11T01:01:47.106Z,72.83
2019-04-11T01:02:46.121Z,73.17
2019-04-11T01:03:45.935Z,73.76
2019-04-11T01:04:46.034Z,74.01
2019-04-11T01:05:45.914Z,73.90
2019-04-11T01:06:46.715Z,73.90
2019-04-11T01:07:47.106Z,74.01
2019-04-11T01:08:46.099Z,73.90
2019-04-11T01:09:45.897Z,73.90
2019-04-11T01:10:45.961Z,74.32
2019-04-11T01:11:45.918Z,73.90
2019-04-11T01:12:46.935Z,73.49
2019-04-11T01:13:50.847Z,74.11
2019-04-11T01:14:46.956Z,73.59
2019-04-11T01:15:46.870Z,74.32
2019-04-11T01:16:45.902Z,74.21
2019-04-11T01:17:45.855Z,73.90
2019-04-11T01:18:46.517Z,74.32
2019-04-11T01:19:46.804Z,74.52
2019-04-11T01:20:46.036Z,74.63
2019-04-11T01:21:45.761Z,74.74
2019-04-11T01:22:46.609Z,74.95
2019-04-11T01:23:45.733Z,74.95
2019-04-11T01:24:46.068Z,74.66
2019-04-11T01:25:46.458Z,75.08
2019-04-11T01:26:45.859Z,75.08
2019-04-11T01:27:45.917Z,74.87
2019-04-11T01:28:46.739Z,75.08
2019-04-11T01:29:45.690Z,75.05
2019-04-11T01:30:45.803Z,75.40
2019-04-11T01:31:46.237Z,75.29
2019-04-11T01:32:46.509Z,75.81
2019-04-11T01:33:46.349Z,75.71
2019-04-11T01:34:45.724Z,75.92
2019-04-11T01:35:45.766Z,76.57
2019-04-11T01:36:45.738Z,76.26
2019-04-11T01:37:46.147Z,76.26
2019-04-11T01:38:46.371Z,77.00
2019-04-11T01:39:45.646Z,77.10
2019-04-11T01:40:45.680Z,76.68
2019-04-11T01:41:46.717Z,76.89
2019-04-11T01:42:45.612Z,76.47
2019-04-11T01:43:53.416Z,76.79
2019-04-11T01:44:47.456Z,76.57
2019-04-11T01:45:45.638Z,76.57
2019-04-11T01:46:46.482Z,76.16
2019-04-11T01:47:45.491Z,76.89
2019-04-11T01:48:45.913Z,76.89
2019-04-11T01:49:46.198Z,77.20
2019-04-11T01:50:45.660Z,77.10
2019-04-11T01:51:45.610Z,77.00
2019-04-11T01:52:46.617Z,77.31
2019-04-11T01:53:45.480Z,76.89
2019-04-11T01:54:52.509Z,76.57
2019-04-11T01:55:45.423Z,77.31
2019-04-11T01:56:45.588Z,77.51
2019-04-11T01:57:46.404Z,77.00
2019-04-11T01:58:45.544Z,77.10
2019-04-11T01:59:45.884Z,77.41
2019-04-11T02:00:45.482Z,77.20
2019-04-11T02:01:45.367Z,77.66
2019-04-11T02:02:46.494Z,77.55
2019-04-11T02:03:45.655Z,77.66
2019-04-11T02:04:46.041Z,77.62
2019-04-11T02:05:45.370Z,77.62
2019-04-11T02:06:45.873Z,78.18
2019-04-11T02:07:45.281Z,77.86
2019-04-11T02:08:45.393Z,77.66
2019-04-11T02:09:46.308Z,77.86
2019-04-11T02:10:45.378Z,78.39
2019-04-11T02:11:45.750Z,78.39
2019-04-11T02:12:45.592Z,77.86
2019-04-11T02:13:45.294Z,78.59
2019-04-11T02:14:45.905Z,78.59
2019-04-11T02:15:46.226Z,79.22
2019-04-11T02:16:45.424Z,78.39
2019-04-11T02:17:45.177Z,79.22
2019-04-11T02:18:45.723Z,78.32
2019-04-11T02:19:45.208Z,79.05
2019-04-11T02:20:45.293Z,79.26
2019-04-11T02:21:46.162Z,79.22
2019-04-11T02:22:45.215Z,79.33
2019-04-11T02:23:45.530Z,79.26
2019-04-11T02:24:45.264Z,79.26
2019-04-11T02:25:45.099Z,79.78
2019-04-11T02:26:46.811Z,79.47
2019-04-11T02:27:46.106Z,78.91
2019-04-11T02:28:45.236Z,79.01
2019-04-11T02:29:45.143Z,78.91
2019-04-11T02:30:47.661Z,78.91
2019-04-11T02:31:46.663Z,79.22
2019-04-11T02:32:47.350Z,79.43
2019-04-11T02:33:46.874Z,79.26
2019-04-11T02:34:46.191Z,79.36
2019-04-11T02:35:47.018Z,79.11
2019-04-11T02:36:45.591Z,79.01
2019-04-11T02:37:47.593Z,79.88
2019-04-11T02:38:48.934Z,79.57
2019-04-11T02:39:47.294Z,79.57
2019-04-11T02:40:45.949Z,79.36
2019-04-11T02:41:46.748Z,79.68
2019-04-11T02:42:47.476Z,79.68
2019-04-11T02:43:46.707Z,79.57
2019-04-11T02:44:59.676Z,79.15
2019-04-11T02:46:00.101Z,79.78
2019-04-11T02:46:57.107Z,80.24
2019-04-11T02:47:48.403Z,79.88
2019-04-11T02:48:45.495Z,80.13
2019-04-11T02:49:45.661Z,80.09
2019-04-11T02:50:45.894Z,80.65
2019-04-11T02:51:45.094Z,80.34
2019-04-11T02:52:45.028Z,80.44
2019-04-11T02:53:45.115Z,80.86
2019-04-11T02:54:45.228Z,80.86
2019-04-11T02:55:46.596Z,80.44
2019-04-11T02:56:45.563Z,80.76
2019-04-11T02:57:46.005Z,80.34
2019-04-11T02:58:46.313Z,80.13
2019-04-11T02:59:46.769Z,80.24
2019-04-11T03:00:45.573Z,80.24
2019-04-11T03:01:46.342Z,80.44
2019-04-11T03:02:44.887Z,80.86
2019-04-11T03:03:45.519Z,82.12
2019-04-11T03:04:45.980Z,81.73
2019-04-11T03:05:46.798Z,82.05
2019-04-11T03:06:45.746Z,81.07
2019-04-11T03:07:45.836Z,81.49
2019-04-11T03:08:46.387Z,80.96
2019-04-11T03:09:46.836Z,80.96
2019-04-11T03:10:45.530Z,81.59
2019-04-11T03:11:45.095Z,80.65
2019-04-11T03:12:47.557Z,80.76
2019-04-11T03:13:46.392Z,80.65
2019-04-11T03:15:16.468Z,80.76
2019-04-11T03:16:00.484Z,80.55
2019-04-11T03:16:56.394Z,80.96
2019-04-11T03:17:46.635Z,80.96
2019-04-11T03:18:59.325Z,80.86
2019-04-11T03:19:59.495Z,80.44
2019-04-11T03:20:49.815Z,80.55
2019-04-11T03:21:46.953Z,80.76
2019-04-11T03:22:45.396Z,80.65
2019-04-11T03:23:46.753Z,80.65
2019-04-11T03:24:44.646Z,80.55
2019-04-11T03:25:44.971Z,80.44
2019-04-11T03:26:45.791Z,80.76
2019-04-11T03:27:45.259Z,80.76
2019-04-11T03:28:49.003Z,80.65
2019-04-11T03:29:45.826Z,80.44
2019-04-11T03:31:09.384Z,80.76
2019-04-11T03:33:50.300Z,80.55
2019-04-11T03:35:37.807Z,80.86
2019-04-11T03:36:53.260Z,81.90
2019-04-11T03:37:22.970Z,81.52
2019-04-11T03:38:03.642Z,81.42
2019-04-11T03:39:05.453Z,81.73
2019-04-11T03:40:07.467Z,81.63
2019-04-11T03:41:04.307Z,81.95
2019-04-11T03:41:59.023Z,82.09
2019-04-11T03:42:59.432Z,82.19
2019-04-11T03:43:54.139Z,82.71
2019-04-11T03:44:54.904Z,82.19
2019-04-11T03:46:03.873Z,82.86
2019-04-11T03:47:01.163Z,82.82
2019-04-11T03:48:02.268Z,82.86
2019-04-11T03:48:55.743Z,83.38
2019-04-11T03:49:51.831Z,83.27
2019-04-11T03:50:46.681Z,83.80
2019-04-11T03:51:46.006Z,84.42
2019-04-11T03:52:45.006Z,84.22
2019-04-11T03:53:44.968Z,84.88
2019-04-11T03:54:45.495Z,84.78
2019-04-11T03:55:45.587Z,85.09
2019-04-11T03:56:45.796Z,84.88
2019-04-11T03:57:44.323Z,84.78
2019-04-11T03:58:46.080Z,85.09
2019-04-11T03:59:45.818Z,84.56
2019-04-11T04:00:44.605Z,85.41
2019-04-11T04:01:44.562Z,84.88
2019-04-11T04:02:44.476Z,85.05
2019-04-11T04:03:44.718Z,85.30
2019-04-11T04:04:45.613Z,84.74
2019-04-11T04:05:44.787Z,84.67
2019-04-11T04:06:45.747Z,84.88
2019-04-11T04:07:44.438Z,85.09
2019-04-11T04:08:44.545Z,85.13
2019-04-11T04:09:45.970Z,85.86
2019-04-11T04:10:44.178Z,86.28
2019-04-11T04:11:45.050Z,86.60
2019-04-11T04:12:45.367Z,85.97
2019-04-11T04:13:45.550Z,86.38
2019-04-11T04:14:45.262Z,86.85
2019-04-11T04:15:58.279Z,86.85
2019-04-11T04:16:48.237Z,87.37
2019-04-11T04:17:45.548Z,87.23
2019-04-11T04:18:45.698Z,87.12
2019-04-11T04:19:45.569Z,87.18
2019-04-11T04:20:45.970Z,86.45
2019-04-11T04:21:43.932Z,86.14
2019-04-11T04:22:45.858Z,85.47
2019-04-11T04:23:45.562Z,85.61
2019-04-11T04:24:45.464Z,85.61
2019-04-11T04:25:47.037Z,85.41
2019-04-11T04:26:44.019Z,85.41
2019-04-11T04:27:45.076Z,85.41
2019-04-11T04:28:45.251Z,86.35
2019-04-11T04:29:47.369Z,86.24
2019-04-11T04:30:46.839Z,86.35
2019-04-11T04:31:44.765Z,85.51
2019-04-11T04:32:45.170Z,85.97
2019-04-11T04:33:45.599Z,86.38
2019-04-11T04:34:44.334Z,86.38
2019-04-11T04:35:44.749Z,86.32
2019-04-11T04:36:43.907Z,86.28
2019-04-11T04:37:45.270Z,86.91
2019-04-11T04:38:44.539Z,87.23
2019-04-11T04:39:43.848Z,87.16
2019-04-11T04:40:58.354Z,87.64
2019-04-11T04:41:53.110Z,87.74
2019-04-11T04:42:48.905Z,87.74
2019-04-11T04:43:44.867Z,87.58
2019-04-11T04:44:45.137Z,87.43
2019-04-11T04:46:05.061Z,87.54
2019-04-11T04:46:58.169Z,87.23
2019-04-11T04:47:48.915Z,87.54
2019-04-11T04:48:45.597Z,87.01
2019-04-11T04:49:43.868Z,87.54
2019-04-11T04:50:44.901Z,87.85
2019-04-11T04:51:44.312Z,87.12
2019-04-11T04:52:44.971Z,87.64
2019-04-11T04:53:45.038Z,87.01
2019-04-11T04:54:44.345Z,87.54
2019-04-11T04:55:45.558Z,87.85
2019-04-11T04:56:45.363Z,87.96
2019-04-11T04:57:44.947Z,88.06
2019-04-11T04:58:44.449Z,88.06
2019-04-11T04:59:44.823Z,87.43
2019-04-11T05:00:43.738Z,87.29
2019-04-11T05:01:46.328Z,87.18
2019-04-11T05:02:44.155Z,87.08
2019-04-11T05:03:44.686Z,86.55
2019-04-11T05:04:43.861Z,86.20
2019-04-11T05:05:44.281Z,86.31
2019-04-11T05:06:46.689Z,85.78
2019-04-11T05:07:46.235Z,86.31
2019-04-11T05:08:45.017Z,85.68
2019-04-11T05:09:43.453Z,86.20
2019-04-11T05:10:44.860Z,86.31
2019-04-11T05:11:44.601Z,86.52
2019-04-11T05:12:43.949Z,85.89
2019-04-11T05:13:48.164Z,85.99
2019-04-11T05:14:45.588Z,86.31
2019-04-11T05:15:44.141Z,86.20
2019-04-11T05:16:44.158Z,85.99
2019-04-11T05:17:44.463Z,86.31
2019-04-11T05:18:43.989Z,86.31
2019-04-11T05:19:44.478Z,86.41
2019-04-11T05:20:44.212Z,86.47
2019-04-11T05:21:44.372Z,85.89
2019-04-11T05:22:43.710Z,85.85
2019-04-11T05:23:48.661Z,86.10
2019-04-11T05:24:45.323Z,85.64
2019-04-11T05:26:00.003Z,85.74
2019-04-11T05:26:44.017Z,86.16
2019-04-11T05:27:45.360Z,86.62
2019-04-11T05:28:45.772Z,86.41
2019-04-11T05:29:47.649Z,85.78
2019-04-11T05:30:47.245Z,86.41
2019-04-11T05:31:44.882Z,86.27
2019-04-11T05:32:45.097Z,86.47
2019-04-11T05:33:43.503Z,86.27
2019-04-11T05:34:47.089Z,86.47
2019-04-11T05:35:44.317Z,86.37
2019-04-11T05:36:43.234Z,86.47
2019-04-11T05:37:43.157Z,86.16
2019-04-11T05:38:44.361Z,85.60
2019-04-11T05:39:43.140Z,85.81
2019-04-11T05:40:43.269Z,85.91
2019-04-11T05:41:46.624Z,85.50
2019-04-11T05:42:43.177Z,85.18
2019-04-11T05:43:43.137Z,85.46
2019-04-11T05:44:43.296Z,85.88
2019-04-11T05:45:43.084Z,85.11
2019-04-11T05:46:52.403Z,85.21
2019-04-11T05:47:48.116Z,85.11
2019-04-11T05:48:45.236Z,83.81
2019-04-11T05:49:43.903Z,84.44
2019-04-11T05:50:47.063Z,84.65
2019-04-11T05:51:47.108Z,84.44
2019-04-11T05:52:44.145Z,83.40
2019-04-11T05:53:43.764Z,84.12
2019-04-11T05:54:47.437Z,84.40
2019-04-11T05:55:45.809Z,83.57
2019-04-11T05:56:43.713Z,83.67
2019-04-11T05:57:43.162Z,83.67
2019-04-11T05:58:45.707Z,82.94
2019-04-11T05:59:43.309Z,82.73
2019-04-11T06:00:44.388Z,82.63
2019-04-11T06:01:43.143Z,82.53
2019-04-11T06:02:43.725Z,82.53
2019-04-11T06:03:45.279Z,82.42
2019-04-11T06:04:42.937Z,82.10
2019-04-11T06:05:44.417Z,82.38
2019-04-11T06:06:42.968Z,82.38
2019-04-11T06:07:46.988Z,82.38
2019-04-11T06:08:44.230Z,81.86
2019-04-11T06:09:44.067Z,82.59
2019-04-11T06:10:43.965Z,82.17
2019-04-11T06:11:43.175Z,81.82
2019-04-11T06:12:43.509Z,81.65
2019-04-11T06:13:42.997Z,81.45
2019-04-11T06:14:43.682Z,81.30
2019-04-11T06:15:44.269Z,81.72
2019-04-11T06:16:48.785Z,81.51
2019-04-11T06:17:43.746Z,81.51
2019-04-11T06:18:45.506Z,81.62
2019-04-11T06:19:43.783Z,81.72
2019-04-11T06:20:43.162Z,81.51
2019-04-11T06:21:42.748Z,81.82
2019-04-11T06:22:42.721Z,81.47
2019-04-11T06:23:43.462Z,81.72
2019-04-11T06:24:42.709Z,81.62
2019-04-11T06:25:45.129Z,81.37
2019-04-11T06:26:42.934Z,81.62
2019-04-11T06:27:43.187Z,81.37
2019-04-11T06:28:42.711Z,80.54
2019-04-11T06:29:43.131Z,80.85
2019-04-11T06:30:42.629Z,80.64
2019-04-11T06:31:42.622Z,80.64
2019-04-11T06:32:43.687Z,80.60
2019-04-11T06:33:42.885Z,81.33
2019-04-11T06:34:43.779Z,80.81
2019-04-11T06:35:42.695Z,80.08
2019-04-11T06:36:43.384Z,79.98
2019-04-11T06:37:43.701Z,79.66
2019-04-11T06:38:42.850Z,79.77
2019-04-11T06:39:43.279Z,80.29
2019-04-11T06:40:42.527Z,79.98
2019-04-11T06:41:43.022Z,79.73
2019-04-11T06:42:43.416Z,80.05
2019-04-11T06:43:43.024Z,79.83
2019-04-11T06:44:42.743Z,79.42
2019-04-11T06:45:42.549Z,79.42
2019-04-11T06:46:49.646Z,78.86
2019-04-11T06:47:43.453Z,80.05
2019-04-11T06:48:42.642Z,79.42
2019-04-11T06:49:42.639Z,79.52
2019-04-11T06:50:43.786Z,79.28
2019-04-11T06:51:42.412Z,79.07
2019-04-11T06:52:43.290Z,78.97
2019-04-11T06:53:42.418Z,79.28
2019-04-11T06:54:43.686Z,78.97
2019-04-11T06:55:42.702Z,78.97
2019-04-11T06:56:43.394Z,79.07
2019-04-11T06:57:42.473Z,78.72
2019-04-11T06:58:43.458Z,79.45
2019-04-11T06:59:43.025Z,78.93
2019-04-11T07:00:42.496Z,78.62
2019-04-11T07:01:42.601Z,78.62
2019-04-11T07:02:42.484Z,78.93
2019-04-11T07:03:42.305Z,78.83
2019-04-11T07:04:42.456Z,79.76
2019-04-11T07:05:42.705Z,79.76
2019-04-11T07:06:42.456Z,78.83
2019-04-11T07:07:42.990Z,78.48
2019-04-11T07:08:42.649Z,77.96
2019-04-11T07:09:42.247Z,78.69
2019-04-11T07:10:42.571Z,78.79
2019-04-11T07:11:42.664Z,77.75
2019-04-11T07:12:42.766Z,77.75
2019-04-11T07:13:43.336Z,78.38
2019-04-11T07:14:43.323Z,78.06
2019-04-11T07:15:42.183Z,77.55
2019-04-11T07:16:43.371Z,76.78
2019-04-11T07:17:42.156Z,77.61
2019-04-11T07:18:44.229Z,77.82
2019-04-11T07:19:42.150Z,77.61
2019-04-11T07:20:43.486Z,76.99
2019-04-11T07:21:42.085Z,76.37
2019-04-11T07:22:43.182Z,76.37
2019-04-11T07:23:44.085Z,76.12
2019-04-11T07:24:43.185Z,76.02
2019-04-11T07:25:43.060Z,75.81
2019-04-11T07:26:42.169Z,75.92
2019-04-11T07:27:42.947Z,76.75
2019-04-11T07:28:43.690Z,77.16
2019-04-11T07:29:42.215Z,77.06
2019-04-11T07:30:42.061Z,76.33
2019-04-11T07:31:41.985Z,75.88
2019-04-11T07:32:42.803Z,75.36
2019-04-11T07:33:43.153Z,75.78
2019-04-11T07:34:43.553Z,75.67
2019-04-11T07:35:42.070Z,76.09
2019-04-11T07:36:41.947Z,75.78
2019-04-11T07:37:41.941Z,75.85
2019-04-11T07:38:43.294Z,75.74
2019-04-11T07:39:44.852Z,75.64
2019-04-11T07:40:43.032Z,76.57
2019-04-11T07:41:43.490Z,75.74
2019-04-11T07:42:43.360Z,75.64
2019-04-11T07:43:43.157Z,75.19
2019-04-11T07:44:42.944Z,75.50
2019-04-11T07:45:43.252Z,75.09
2019-04-11T07:46:42.934Z,74.98
2019-04-11T07:47:41.980Z,74.57
2019-04-11T07:48:42.628Z,75.19
2019-04-11T07:49:42.814Z,74.88
2019-04-11T07:50:42.265Z,74.95
2019-04-11T07:51:43.053Z,74.22
2019-04-11T07:52:42.584Z,74.11
2019-04-11T07:53:41.797Z,73.91
2019-04-11T07:54:41.800Z,73.80
2019-04-11T07:55:42.314Z,73.49
2019-04-11T07:56:41.957Z,73.39
2019-04-11T07:57:42.540Z,73.49
2019-04-11T07:58:42.086Z,73.25
2019-04-11T07:59:41.912Z,73.88
2019-04-11T08:00:44.844Z,73.60
2019-04-11T08:01:42.800Z,73.08
2019-04-11T08:02:41.745Z,72.67
2019-04-11T08:03:41.883Z,72.98
2019-04-11T08:04:42.722Z,73.28
2019-04-11T08:05:42.780Z,73.39
2019-04-11T08:06:41.655Z,73.80
2019-04-11T08:07:42.511Z,73.15
2019-04-11T08:08:41.647Z,73.57
2019-04-11T08:09:41.740Z,74.29
2019-04-11T08:10:41.609Z,73.05
2019-04-11T08:11:42.175Z,72.50
2019-04-11T08:12:41.583Z,72.39
2019-04-11T08:13:42.877Z,73.53
2019-04-11T08:14:42.476Z,73.43
2019-04-11T08:15:41.962Z,72.46
2019-04-11T08:16:42.615Z,71.84
2019-04-11T08:17:42.959Z,72.43
2019-04-11T08:18:41.660Z,73.08
2019-04-11T08:19:42.778Z,72.85
2019-04-11T08:20:41.632Z,71.50
2019-04-11T08:21:41.945Z,72.12
2019-04-11T08:22:41.474Z,71.60
2019-04-11T08:23:43.521Z,72.02
2019-04-11T08:24:42.645Z,71.08
2019-04-11T08:25:41.860Z,70.43
2019-04-11T08:26:42.252Z,70.64
2019-04-11T08:27:53.002Z,69.29
2019-04-11T08:28:43.490Z,69.50
2019-04-11T08:29:42.176Z,69.60
2019-04-11T08:30:41.571Z,69.92
2019-04-11T08:31:41.569Z,69.88
2019-04-11T08:32:42.064Z,69.78
2019-04-11T08:33:42.562Z,68.95
2019-04-11T08:34:41.662Z,69.06
2019-04-11T08:35:42.027Z,68.12
2019-04-11T08:36:42.076Z,68.33
2019-04-11T08:37:41.546Z,68.54
2019-04-11T08:38:42.550Z,68.85
2019-04-11T08:39:41.606Z,68.09
2019-04-11T08:40:41.338Z,67.88
2019-04-11T08:41:42.030Z,67.88
2019-04-11T08:42:42.386Z,68.37
2019-04-11T08:43:41.542Z,67.78
2019-04-11T08:44:42.366Z,67.85
2019-04-11T08:45:42.270Z,66.72
2019-04-11T08:46:42.611Z,67.13
2019-04-11T08:47:47.044Z,66.72
2019-04-11T08:48:42.807Z,66.10
2019-04-11T08:49:41.871Z,67.03
2019-04-11T08:50:41.160Z,67.85
2019-04-11T08:51:41.282Z,68.37
2019-04-11T08:52:42.285Z,68.13
2019-04-11T08:53:41.172Z,67.00
2019-04-11T08:54:41.736Z,65.24
2019-04-11T08:55:48.633Z,65.03
2019-04-11T08:56:43.162Z,65.34
2019-04-11T08:57:42.599Z,66.07
2019-04-11T08:58:41.113Z,66.48
2019-04-11T08:59:41.778Z,65.45
2019-04-11T09:00:42.186Z,66.17
2019-04-11T09:01:42.295Z,65.34
2019-04-11T09:02:41.058Z,64.59
2019-04-11T09:03:41.991Z,64.39
2019-04-11T09:04:41.244Z,65.94
2019-04-11T09:05:41.052Z,66.94
2019-04-11T09:06:41.045Z,64.67
2019-04-11T09:07:41.498Z,61.47
2019-04-11T09:08:41.011Z,61.36
2019-04-11T09:09:41.158Z,62.08
2019-04-11T09:10:42.293Z,62.19
2019-04-11T09:11:42.210Z,63.77
2019-04-11T09:12:40.932Z,63.43
2019-04-11T09:13:41.873Z,63.12
2019-04-11T09:14:41.075Z,61.98
2019-04-11T09:15:41.267Z,61.98
2019-04-11T09:16:41.595Z,62.40
2019-04-11T09:17:54.931Z,63.53
2019-04-11T09:18:41.917Z,61.96
2019-04-11T09:19:41.135Z,61.54
2019-04-11T09:20:40.866Z,63.50
2019-04-11T09:21:41.011Z,63.29
2019-04-11T09:22:41.505Z,61.65
2019-04-11T09:23:41.855Z,62.54
2019-04-11T09:24:41.023Z,61.75
2019-04-11T09:25:40.908Z,59.97
2019-04-11T09:26:41.512Z,61.75
2019-04-11T09:27:40.911Z,62.16
2019-04-11T09:28:41.799Z,62.26
2019-04-11T09:29:41.809Z,62.16
2019-04-11T09:30:41.178Z,59.97
2019-04-11T09:31:41.671Z,58.45
2019-04-11T09:32:40.734Z,60.82
2019-04-11T09:33:41.483Z,59.79
2019-04-11T09:34:41.821Z,61.31
2019-04-11T09:35:41.591Z,60.89
2019-04-11T09:36:40.977Z,59.45
2019-04-11T09:37:42.904Z,58.94
2019-04-11T09:38:40.686Z,58.11
2019-04-11T09:39:41.494Z,59.22
2019-04-11T09:40:41.691Z,57.78
2019-04-11T09:41:40.709Z,57.78
2019-04-11T09:42:40.614Z,59.74
2019-04-11T09:43:40.763Z,59.81
2019-04-11T09:44:41.273Z,60.43
2019-04-11T09:45:41.719Z,58.16
2019-04-11T09:46:40.811Z,59.19
2019-04-11T09:47:40.587Z,59.50
2019-04-11T09:48:40.594Z,58.78
2019-04-11T09:49:40.642Z,58.06
2019-04-11T09:50:40.606Z,59.09
2019-04-11T09:51:40.674Z,58.24
2019-04-11T09:52:40.949Z,58.14
2019-04-11T09:53:41.014Z,57.90
2019-04-11T09:54:40.517Z,57.90
2019-04-11T09:55:41.609Z,58.01
2019-04-11T09:56:40.495Z,57.59
2019-04-11T09:57:41.809Z,58.45
2019-04-11T09:58:40.518Z,58.03
2019-04-11T09:59:41.154Z,58.01
2019-04-11T10:00:41.056Z,57.59
2019-04-11T10:01:40.819Z,57.57
2019-04-11T10:02:40.440Z,57.16
2019-04-11T10:03:40.917Z,57.78
2019-04-11T10:04:41.583Z,58.59
2019-04-11T10:05:40.728Z,57.36
2019-04-11T10:06:40.978Z,55.72
2019-04-11T10:07:40.354Z,55.21
2019-04-11T10:08:41.601Z,54.22
2019-04-11T10:09:40.332Z,54.43
2019-04-11T10:10:43.149Z,54.64
2019-04-11T10:11:40.501Z,54.22
2019-04-11T10:12:40.629Z,54.22
2019-04-11T10:13:40.709Z,54.43
2019-04-11T10:14:40.296Z,55.36
2019-04-11T10:15:40.433Z,55.85
2019-04-11T10:16:40.255Z,55.33
2019-04-11T10:17:40.339Z,55.21
2019-04-11T10:18:41.087Z,55.62
2019-04-11T10:19:40.347Z,55.62
2019-04-11T10:20:40.484Z,53.35
2019-04-11T10:21:41.645Z,54.28
2019-04-11T10:22:40.453Z,54.17
2019-04-11T10:23:40.936Z,56.74
2019-04-11T10:24:40.856Z,57.75
2019-04-11T10:25:40.192Z,55.08
2019-04-11T10:26:40.404Z,54.66
2019-04-11T10:27:40.641Z,53.20
2019-04-11T10:28:41.780Z,52.48
2019-04-11T10:29:40.145Z,53.92
2019-04-11T10:30:40.203Z,53.72
2019-04-11T10:31:40.107Z,52.66
2019-04-11T10:32:41.329Z,52.33
2019-04-11T10:33:41.346Z,51.41
2019-04-11T10:34:40.236Z,51.90
2019-04-11T10:35:40.775Z,53.95
2019-04-11T10:36:40.338Z,52.41
2019-04-11T10:37:40.174Z,52.18
2019-04-11T10:38:41.131Z,51.56
2019-04-11T10:39:40.050Z,50.64
2019-04-11T10:40:40.182Z,51.98
2019-04-11T10:41:40.174Z,51.87
2019-04-11T10:42:40.022Z,50.74
2019-04-11T10:43:40.412Z,50.13
2019-04-11T10:44:40.359Z,50.56
2019-04-11T10:45:40.125Z,52.41
2019-04-11T10:46:39.954Z,52.41
2019-04-11T10:47:40.892Z,51.72
2019-04-11T10:48:42.613Z,51.72
2019-04-11T10:49:42.094Z,51.84
2019-04-11T10:50:40.325Z,52.04
2019-04-11T10:51:40.823Z,51.74
2019-04-11T10:52:39.898Z,53.41
2019-04-11T10:53:39.916Z,53.85
2019-04-11T10:54:40.810Z,52.40
2019-04-11T10:55:39.966Z,53.92
2019-04-11T10:56:39.851Z,54.43
2019-04-11T10:57:40.831Z,52.48
2019-04-11T10:58:40.695Z,52.66
2019-04-11T10:59:40.762Z,53.38
2019-04-11T11:00:39.812Z,53.87
2019-04-11T11:01:40.225Z,53.23
2019-04-11T11:02:39.828Z,52.49
2019-04-11T11:03:39.971Z,52.15
2019-04-11T11:04:40.900Z,50.01
2019-04-11T11:05:40.110Z,48.98
2019-04-11T11:06:39.959Z,50.21
2019-04-11T11:07:40.540Z,49.08
2019-04-11T11:08:39.872Z,50.31
2019-04-11T11:09:39.877Z,50.09
2019-04-11T11:10:39.778Z,48.75
2019-04-11T11:11:40.797Z,48.96
2019-04-11T11:12:39.777Z,48.75
2019-04-11T11:13:40.742Z,48.85
2019-04-11T11:14:39.797Z,48.67
2019-04-11T11:15:39.899Z,49.90
2019-04-11T11:16:41.916Z,50.52
2019-04-11T11:18:03.238Z,50.62
2019-04-11T11:19:03.256Z,50.10
2019-04-11T11:19:55.281Z,48.57
2019-04-11T11:20:48.379Z,49.59
2019-04-11T11:21:40.579Z,50.31
2019-04-11T11:22:41.502Z,48.96
2019-04-11T11:23:40.713Z,49.26
2019-04-11T11:24:40.608Z,48.14
2019-04-11T11:25:39.573Z,46.30
2019-04-11T11:26:41.046Z,46.72
2019-04-11T11:27:39.505Z,46.50
2019-04-11T11:28:39.673Z,46.09
2019-04-11T11:29:40.387Z,45.94
2019-04-11T11:30:39.884Z,46.53
2019-04-11T11:31:40.756Z,47.80
2019-04-11T11:32:39.640Z,45.25
2019-04-11T11:33:40.596Z,46.14
2019-04-11T11:34:39.524Z,45.84
2019-04-11T11:35:40.990Z,44.81
2019-04-11T11:36:39.662Z,45.43
2019-04-11T11:37:39.723Z,45.43
2019-04-11T11:38:39.743Z,45.84
2019-04-11T11:39:39.537Z,44.63
2019-04-11T11:40:41.645Z,44.32
2019-04-11T11:41:40.409Z,45.96
2019-04-11T11:42:39.474Z,47.29
2019-04-11T11:43:39.370Z,46.16
2019-04-11T11:44:39.500Z,47.00
2019-04-11T11:45:39.485Z,46.80
2019-04-11T11:46:40.414Z,46.00
2019-04-11T11:47:41.218Z,45.39
2019-04-11T11:48:39.738Z,46.00
2019-04-11T11:49:48.755Z,46.33
2019-04-11T11:50:40.283Z,47.56
2019-04-11T11:51:39.432Z,48.35
2019-04-11T11:52:39.388Z,46.82
2019-04-11T11:53:40.551Z,46.12
2019-04-11T11:54:39.789Z,47.07
2019-04-11T11:55:39.365Z,47.07
2019-04-11T11:56:40.262Z,45.74
2019-04-11T11:57:39.362Z,46.35
2019-04-11T11:58:39.222Z,45.64
2019-04-11T11:59:40.587Z,47.35
2019-04-11T12:00:39.178Z,48.07
2019-04-11T12:01:43.234Z,47.86
2019-04-11T12:02:40.161Z,47.97
2019-04-11T12:03:40.749Z,47.68
2019-04-11T12:04:40.427Z,48.52
2019-04-11T12:05:39.249Z,49.24
2019-04-11T12:06:39.103Z,48.63
2019-04-11T12:07:39.420Z,48.83
2019-04-11T12:08:39.249Z,48.93
2019-04-11T12:09:39.420Z,49.24
2019-04-11T12:10:39.577Z,46.48
2019-04-11T12:11:39.947Z,44.53
2019-04-11T12:12:40.000Z,44.94
2019-04-11T12:13:40.679Z,46.78
2019-04-11T12:14:42.123Z,45.04
2019-04-11T12:15:39.288Z,44.43
2019-04-11T12:16:39.725Z,43.69
2019-04-11T12:17:38.972Z,43.28
2019-04-11T12:18:43.751Z,45.92
2019-04-11T12:19:47.968Z,44.47
2019-04-11T12:20:44.469Z,44.26
2019-04-11T12:21:40.967Z,44.35
2019-04-11T12:22:40.139Z,43.12
2019-04-11T12:23:48.627Z,42.71
2019-04-11T12:24:40.544Z,41.47
2019-04-11T12:25:39.100Z,40.16
2019-04-11T12:26:39.909Z,40.46
2019-04-11T12:27:40.055Z,40.75
2019-04-11T12:28:39.080Z,41.56
2019-04-11T12:29:44.398Z,42.06
2019-04-11T12:30:40.029Z,41.22
2019-04-11T12:31:39.665Z,40.10
2019-04-11T12:32:39.032Z,37.24
2019-04-11T12:33:38.966Z,36.51
2019-04-11T12:34:38.805Z,34.27
2019-04-11T12:35:40.040Z,34.80
2019-04-11T12:36:43.021Z,37.02
2019-04-11T12:37:39.873Z,37.23
2019-04-11T12:38:38.806Z,36.51
2019-04-11T12:39:38.845Z,36.19
2019-04-11T12:40:38.748Z,35.58
2019-04-11T12:41:38.873Z,36.90
2019-04-11T12:42:38.722Z,37.19
2019-04-11T12:43:39.050Z,38.62
2019-04-11T12:44:38.705Z,36.07
2019-04-11T12:45:38.787Z,36.68
2019-04-11T12:46:38.677Z,35.97
2019-04-11T12:47:39.357Z,36.88
2019-04-11T12:48:38.780Z,38.51
2019-04-11T12:49:38.824Z,39.45
2019-04-11T12:50:38.667Z,40.45
2019-04-11T12:51:38.606Z,40.17
2019-04-11T12:52:38.590Z,40.47
2019-04-11T12:53:38.789Z,40.57
2019-04-11T12:54:38.598Z,39.37